Long Beach /Daugherty Field/ Airport
KLGB : now visible

Airfield :











YOU CAN JOIN US ON...

 
LOGIN :

Register | Disclaimer

   EN    FR    IT 

 









Legend :    VFR   Marginal VFR   IFR   Intensive IFR   Very Intensive IFR
Visi :
Ceiling :
>= 8 km
>= 3000ft
5 to 8 km
1000 to 3000 ft
1500m to 5 km
500 to 1000 ft
800 to 1500m
200 to 500 ft
< 800m
< 200 ft
Symbols :   Thunderstorms  Fog  Heavy snow  Heavy precipitations  Wind > 20 kt







- Airport Elevation : 60 ft
- IATA code : LGB


KLGB - Long Beach /Daugherty Field/

CURRENT METAR :
  • 212053Z 19006KT 10SM CLR 29/16 A2982 RMK AO2 SLP098 T02890161 58025

EXPIRED METARs :
  • 211953Z 19005KT 10SM CLR 28/16 A2985 RMK AO2 SLP107 T02780161
  • 211853Z 17004KT 10SM CLR 28/16 A2988 RMK AO2 SLP116 T02780161

TAF KLGB
Valid from the 21 at 18:00 until the 22 at 18:00 UTC


211741Z 2118/2218 VRB03KT P6SM SKC
FM211900 20007KT P6SM SKC
FM212300 29009KT P6SM SKC
FM220400 VRB03KT P6SM SKC
FM221600 16005KT P6SM SKC
No reported NOTAMs for that airfield.



MET'MAP, your aeronautical weather chart ! - Copyright ORBIFLY December 2007 - Disclaimer

ORBIFLY MET'MAP TEAM :

Programming & Development : Alexandra Zaïnal
Concept & Development : Baudouin d'Aumeries
Co-Development & Prog : Marc-Olivier Méhu
Technical & hardware support : Manuel Goepfert

Contact : metmap@orbifly.com




SOURCES & CREDITS :

   NOAA       Earth
Advisory